ARG110 KPHX-KSAN
Flight info
| Callsign | ARG110 |
|---|---|
| Flight time | 1h 9m |
| Altitude | 30000 |
| Route | FYRBD1 MOHAK J2 HOGGZ LUCKI1 |
| Aircraft | B738/M-SDE2E3FGHIRWXY/LB1 |
Departure
| Time | 2026-05-04 01:30 |
|---|---|
| Airport | Phoenix Sky Harbor International Airport (KPHX) |
Arrival
| Time | 2026-05-04 02:39 |
|---|---|
| Airport | San Diego International Airport (KSAN) |
| Time | Latitude | Longitude | Altitude | Speed | Heading |
|---|---|---|---|---|---|
| 2026-05-04 01:05 | 33.43374 | -111.99372 | 1130 ft | 0 kts | 307° |
| 2026-05-04 01:23 | 33.43371 | -111.99367 | 1130 ft | 2 kts | 295° |
| 2026-05-04 01:23 | 33.43366 | -111.99348 | 1130 ft | 2 kts | 265° |
| 2026-05-04 01:23 | 33.43371 | -111.99329 | 1131 ft | 2 kts | 231° |
| 2026-05-04 01:23 | 33.43383 | -111.99316 | 1134 ft | 2 kts | 207° |
| 2026-05-04 01:24 | 33.43393 | -111.99311 | 1134 ft | 1 kts | 186° |
| 2026-05-04 01:24 | 33.43394 | -111.99311 | 1134 ft | 0 kts | 185° |
| 2026-05-04 01:27 | 33.43387 | -111.99312 | 1133 ft | 5 kts | 185° |
| 2026-05-04 01:27 | 33.43331 | -111.99310 | 1133 ft | 11 kts | 176° |
| 2026-05-04 01:27 | 33.43274 | -111.99253 | 1135 ft | 11 kts | 125° |
| 2026-05-04 01:28 | 33.43210 | -111.99261 | 1133 ft | 11 kts | 221° |
| 2026-05-04 01:28 | 33.43204 | -111.99268 | 1136 ft | 0 kts | 221° |
| 2026-05-04 01:29 | 33.43179 | -111.99295 | 1134 ft | 7 kts | 223° |
| 2026-05-04 01:29 | 33.43144 | -111.99335 | 1137 ft | 7 kts | 223° |
| 2026-05-04 01:29 | 33.43117 | -111.99384 | 1137 ft | 7 kts | 247° |
| 2026-05-04 01:30 | 33.43107 | -111.99501 | 1134 ft | 38 kts | 268° |
| 2026-05-04 01:30 | 33.43103 | -112.00140 | 1134 ft | 113 kts | 270° |
| 2026-05-04 01:30 | 33.43103 | -112.01326 | 1261 ft | 163 kts | 270° |
| 2026-05-04 01:30 | 33.43084 | -112.02682 | 2276 ft | 159 kts | 263° |
| 2026-05-04 01:31 | 33.43059 | -112.03983 | 3315 ft | 158 kts | 263° |
| 2026-05-04 01:31 | 33.42996 | -112.05426 | 3787 ft | 192 kts | 261° |
| 2026-05-04 01:31 | 33.42835 | -112.07164 | 4043 ft | 227 kts | 260° |
| 2026-05-04 01:31 | 33.42545 | -112.09096 | 4630 ft | 246 kts | 251° |
| 2026-05-04 01:32 | 33.42055 | -112.11146 | 5236 ft | 261 kts | 244° |
| 2026-05-04 01:32 | 33.41198 | -112.12995 | 6369 ft | 252 kts | 232° |
| 2026-05-04 01:32 | 33.40204 | -112.14708 | 7388 ft | 255 kts | 238° |
| 2026-05-04 01:32 | 33.39178 | -112.16468 | 8162 ft | 260 kts | 221° |
| 2026-05-04 01:33 | 33.37637 | -112.17587 | 9035 ft | 263 kts | 196° |
| 2026-05-04 01:33 | 33.35797 | -112.17816 | 9863 ft | 270 kts | 174° |
| 2026-05-04 01:33 | 33.33931 | -112.17331 | 10556 ft | 284 kts | 166° |
| 2026-05-04 01:33 | 33.31949 | -112.16615 | 10788 ft | 311 kts | 165° |
| 2026-05-04 01:34 | 33.29793 | -112.15814 | 10983 ft | 337 kts | 165° |
| 2026-05-04 01:34 | 33.27453 | -112.15149 | 11145 ft | 354 kts | 179° |
| 2026-05-04 01:34 | 33.25010 | -112.15603 | 11610 ft | 360 kts | 201° |
| 2026-05-04 01:34 | 33.22862 | -112.17137 | 12272 ft | 362 kts | 221° |
| 2026-05-04 01:35 | 33.21296 | -112.19493 | 12963 ft | 366 kts | 241° |
| 2026-05-04 01:35 | 33.20511 | -112.22393 | 13675 ft | 372 kts | 260° |
| 2026-05-04 01:35 | 33.20575 | -112.25508 | 14231 ft | 378 kts | 271° |
| 2026-05-04 01:35 | 33.20371 | -112.28604 | 14831 ft | 374 kts | 253° |
| 2026-05-04 01:36 | 33.19275 | -112.31386 | 15447 ft | 372 kts | 234° |
| 2026-05-04 01:36 | 33.17662 | -112.33809 | 16061 ft | 373 kts | 231° |
| 2026-05-04 01:36 | 33.16014 | -112.36212 | 16572 ft | 376 kts | 232° |
| 2026-05-04 01:36 | 33.14384 | -112.38616 | 17092 ft | 378 kts | 232° |
| 2026-05-04 01:37 | 33.12745 | -112.41075 | 17639 ft | 379 kts | 233° |
| 2026-05-04 01:37 | 33.11115 | -112.43556 | 18152 ft | 381 kts | 233° |
| 2026-05-04 01:37 | 33.09485 | -112.46059 | 18585 ft | 383 kts | 234° |
| 2026-05-04 01:37 | 33.07853 | -112.48575 | 19020 ft | 384 kts | 234° |
| 2026-05-04 01:38 | 33.06215 | -112.51106 | 19417 ft | 387 kts | 234° |
| 2026-05-04 01:38 | 33.04564 | -112.53656 | 19858 ft | 389 kts | 234° |
| 2026-05-04 01:38 | 33.02908 | -112.56212 | 20288 ft | 390 kts | 234° |
| 2026-05-04 01:38 | 33.01244 | -112.58778 | 20694 ft | 392 kts | 234° |
| 2026-05-04 01:39 | 32.99572 | -112.61353 | 20792 ft | 393 kts | 234° |
| 2026-05-04 01:39 | 32.97896 | -112.63932 | 20807 ft | 394 kts | 234° |
| 2026-05-04 01:39 | 32.96320 | -112.66591 | 20805 ft | 392 kts | 243° |
| 2026-05-04 01:39 | 32.95309 | -112.69579 | 20818 ft | 390 kts | 256° |
| 2026-05-04 01:40 | 32.94808 | -112.72754 | 20821 ft | 390 kts | 260° |
| 2026-05-04 01:40 | 32.94394 | -112.75946 | 20808 ft | 390 kts | 261° |
| 2026-05-04 01:40 | 32.93995 | -112.79146 | 20815 ft | 391 kts | 261° |
| 2026-05-04 01:40 | 32.93593 | -112.82342 | 20815 ft | 391 kts | 261° |
| 2026-05-04 01:41 | 32.93181 | -112.85540 | 20812 ft | 390 kts | 261° |
| 2026-05-04 01:41 | 32.92762 | -112.88727 | 20811 ft | 390 kts | 260° |
| 2026-05-04 01:41 | 32.92334 | -112.91928 | 20899 ft | 394 kts | 260° |
| 2026-05-04 01:41 | 32.91899 | -112.95154 | 21315 ft | 394 kts | 260° |
| 2026-05-04 01:42 | 32.91462 | -112.98370 | 21783 ft | 393 kts | 260° |
| 2026-05-04 01:42 | 32.91024 | -113.01582 | 22217 ft | 393 kts | 261° |
| 2026-05-04 01:42 | 32.90584 | -113.04800 | 22596 ft | 395 kts | 261° |
| 2026-05-04 01:42 | 32.90141 | -113.08033 | 22958 ft | 397 kts | 261° |
| 2026-05-04 01:43 | 32.89695 | -113.11277 | 23298 ft | 398 kts | 261° |
| 2026-05-04 01:43 | 32.89247 | -113.14535 | 23601 ft | 399 kts | 261° |
| 2026-05-04 01:43 | 32.88798 | -113.17794 | 23935 ft | 399 kts | 261° |
| 2026-05-04 01:43 | 32.88345 | -113.21054 | 24271 ft | 399 kts | 260° |
| 2026-05-04 01:44 | 32.87890 | -113.24314 | 24583 ft | 399 kts | 260° |
| 2026-05-04 01:44 | 32.87435 | -113.27580 | 24891 ft | 400 kts | 261° |
| 2026-05-04 01:44 | 32.86980 | -113.30845 | 25196 ft | 400 kts | 261° |
| 2026-05-04 01:44 | 32.86526 | -113.34106 | 25501 ft | 400 kts | 261° |
| 2026-05-04 01:45 | 32.86072 | -113.37369 | 25791 ft | 400 kts | 261° |
| 2026-05-04 01:45 | 32.85616 | -113.40637 | 26090 ft | 400 kts | 261° |
| 2026-05-04 01:45 | 32.84706 | -113.47136 | 26617 ft | 401 kts | 261° |
| 2026-05-04 01:46 | 32.84248 | -113.50403 | 26988 ft | 399 kts | 261° |
| 2026-05-04 01:46 | 32.83793 | -113.53638 | 27445 ft | 395 kts | 261° |
| 2026-05-04 01:46 | 32.83343 | -113.56838 | 27937 ft | 390 kts | 261° |
| 2026-05-04 01:46 | 32.82897 | -113.60005 | 28377 ft | 387 kts | 261° |
| 2026-05-04 01:47 | 32.82453 | -113.63150 | 28789 ft | 385 kts | 261° |
| 2026-05-04 01:47 | 32.82009 | -113.66281 | 29202 ft | 383 kts | 261° |
| 2026-05-04 01:47 | 32.81566 | -113.69395 | 29609 ft | 381 kts | 261° |
| 2026-05-04 01:47 | 32.81126 | -113.72492 | 29767 ft | 379 kts | 261° |
| 2026-05-04 01:48 | 32.80696 | -113.75504 | 29782 ft | 359 kts | 261° |
| 2026-05-04 01:48 | 32.80288 | -113.78363 | 29769 ft | 343 kts | 261° |
| 2026-05-04 01:48 | 32.79900 | -113.81087 | 29769 ft | 327 kts | 261° |
| 2026-05-04 01:48 | 32.79528 | -113.83696 | 29768 ft | 313 kts | 261° |
| 2026-05-04 01:49 | 32.78805 | -113.88778 | 29803 ft | 314 kts | 261° |
| 2026-05-04 01:49 | 32.78065 | -113.93936 | 29799 ft | 318 kts | 261° |
| 2026-05-04 01:50 | 32.77550 | -113.99168 | 29792 ft | 320 kts | 268° |
| 2026-05-04 01:50 | 32.77512 | -114.04449 | 29779 ft | 319 kts | 268° |
| 2026-05-04 01:51 | 32.77560 | -114.09671 | 29780 ft | 317 kts | 271° |
| 2026-05-04 01:51 | 32.77788 | -114.14884 | 29781 ft | 315 kts | 271° |
| 2026-05-04 01:52 | 32.78013 | -114.20084 | 29774 ft | 315 kts | 271° |
| 2026-05-04 01:52 | 32.78224 | -114.25283 | 29774 ft | 315 kts | 271° |
| 2026-05-04 01:53 | 32.78431 | -114.30482 | 29770 ft | 315 kts | 270° |
| 2026-05-04 01:53 | 32.78628 | -114.35687 | 29770 ft | 315 kts | 270° |
| 2026-05-04 01:54 | 32.79312 | -114.40891 | 29839 ft | 323 kts | 283° |
| 2026-05-04 01:54 | 32.80725 | -114.45922 | 29761 ft | 317 kts | 283° |
| 2026-05-04 01:55 | 32.82114 | -114.50898 | 29773 ft | 318 kts | 283° |
| 2026-05-04 01:55 | 32.83486 | -114.55867 | 29767 ft | 319 kts | 283° |
| 2026-05-04 01:56 | 32.84862 | -114.60872 | 29770 ft | 318 kts | 283° |
| 2026-05-04 01:56 | 32.86233 | -114.65872 | 29772 ft | 317 kts | 282° |
| 2026-05-04 01:57 | 32.87582 | -114.70854 | 29767 ft | 315 kts | 280° |
| 2026-05-04 01:57 | 32.87928 | -114.75956 | 29775 ft | 309 kts | 268° |
| 2026-05-04 01:58 | 32.87787 | -114.81050 | 29789 ft | 308 kts | 267° |
| 2026-05-04 01:58 | 32.87646 | -114.86144 | 29784 ft | 309 kts | 267° |
| 2026-05-04 01:59 | 32.87520 | -114.91253 | 29786 ft | 309 kts | 267° |
| 2026-05-04 01:59 | 32.87399 | -114.96368 | 29783 ft | 309 kts | 267° |
| 2026-05-04 02:00 | 32.87280 | -115.01469 | 29779 ft | 308 kts | 267° |
| 2026-05-04 02:00 | 32.87181 | -115.05704 | 29782 ft | 308 kts | 267° |
| 2026-05-04 02:01 | 32.87060 | -115.10793 | 29773 ft | 307 kts | 267° |
| 2026-05-04 02:01 | 32.86937 | -115.15866 | 29775 ft | 306 kts | 267° |
| 2026-05-04 02:02 | 32.86812 | -115.20969 | 29777 ft | 317 kts | 267° |
| 2026-05-04 02:02 | 32.86678 | -115.26373 | 29781 ft | 337 kts | 267° |
| 2026-05-04 02:03 | 32.86606 | -115.29200 | 29565 ft | 350 kts | 267° |
| 2026-05-04 02:03 | 32.86528 | -115.32170 | 29083 ft | 367 kts | 267° |
| 2026-05-04 02:03 | 32.86387 | -115.35201 | 28521 ft | 364 kts | 263° |
| 2026-05-04 02:03 | 32.86012 | -115.38159 | 27926 ft | 358 kts | 260° |
| 2026-05-04 02:04 | 32.85560 | -115.41056 | 27311 ft | 354 kts | 259° |
| 2026-05-04 02:04 | 32.85129 | -115.43886 | 26726 ft | 351 kts | 260° |
| 2026-05-04 02:04 | 32.84715 | -115.46731 | 26146 ft | 348 kts | 260° |
| 2026-05-04 02:04 | 32.84312 | -115.49557 | 25636 ft | 344 kts | 259° |
| 2026-05-04 02:05 | 32.83877 | -115.52330 | 25227 ft | 340 kts | 258° |
| 2026-05-04 02:05 | 32.83412 | -115.55136 | 24804 ft | 350 kts | 258° |
| 2026-05-04 02:05 | 32.82933 | -115.58006 | 24378 ft | 358 kts | 258° |
| 2026-05-04 02:05 | 32.82447 | -115.60927 | 23928 ft | 360 kts | 258° |
| 2026-05-04 02:06 | 32.81965 | -115.63842 | 23507 ft | 358 kts | 258° |
| 2026-05-04 02:06 | 32.81488 | -115.66738 | 23025 ft | 357 kts | 258° |
| 2026-05-04 02:06 | 32.81015 | -115.69621 | 22560 ft | 354 kts | 258° |
| 2026-05-04 02:06 | 32.80544 | -115.72487 | 22082 ft | 351 kts | 258° |
| 2026-05-04 02:07 | 32.80078 | -115.75325 | 21605 ft | 349 kts | 257° |
| 2026-05-04 02:07 | 32.79613 | -115.78156 | 21173 ft | 351 kts | 257° |
| 2026-05-04 02:07 | 32.79142 | -115.81005 | 20746 ft | 351 kts | 257° |
| 2026-05-04 02:07 | 32.78671 | -115.83846 | 20321 ft | 350 kts | 257° |
| 2026-05-04 02:08 | 32.78283 | -115.86694 | 19893 ft | 349 kts | 261° |
| 2026-05-04 02:08 | 32.78047 | -115.89561 | 19485 ft | 349 kts | 263° |
| 2026-05-04 02:08 | 32.77858 | -115.92438 | 19065 ft | 349 kts | 263° |
| 2026-05-04 02:08 | 32.77675 | -115.95312 | 18639 ft | 349 kts | 263° |
| 2026-05-04 02:09 | 32.77483 | -115.98188 | 18220 ft | 350 kts | 263° |
| 2026-05-04 02:09 | 32.77280 | -116.01079 | 17747 ft | 350 kts | 263° |
| 2026-05-04 02:09 | 32.77071 | -116.03959 | 17296 ft | 350 kts | 262° |
| 2026-05-04 02:09 | 32.76857 | -116.06838 | 16875 ft | 350 kts | 262° |
| 2026-05-04 02:10 | 32.76641 | -116.09716 | 16460 ft | 349 kts | 262° |
| 2026-05-04 02:10 | 32.76425 | -116.12580 | 16035 ft | 348 kts | 262° |
| 2026-05-04 02:10 | 32.76207 | -116.15442 | 15618 ft | 348 kts | 263° |
| 2026-05-04 02:10 | 32.75990 | -116.18302 | 15200 ft | 347 kts | 262° |
| 2026-05-04 02:11 | 32.75774 | -116.21137 | 14797 ft | 344 kts | 263° |
| 2026-05-04 02:11 | 32.75558 | -116.23957 | 14361 ft | 341 kts | 262° |
| 2026-05-04 02:11 | 32.75341 | -116.26753 | 13909 ft | 338 kts | 263° |
| 2026-05-04 02:11 | 32.75127 | -116.29522 | 13456 ft | 334 kts | 263° |
| 2026-05-04 02:12 | 32.74916 | -116.32248 | 13028 ft | 329 kts | 262° |
| 2026-05-04 02:12 | 32.74707 | -116.34936 | 12619 ft | 324 kts | 262° |
| 2026-05-04 02:12 | 32.74502 | -116.37577 | 12224 ft | 319 kts | 262° |
| 2026-05-04 02:12 | 32.74299 | -116.40188 | 11845 ft | 315 kts | 262° |
| 2026-05-04 02:13 | 32.74101 | -116.42739 | 11452 ft | 311 kts | 262° |
| 2026-05-04 02:13 | 32.73902 | -116.45278 | 11078 ft | 308 kts | 262° |
| 2026-05-04 02:13 | 32.73704 | -116.47793 | 10718 ft | 305 kts | 262° |
| 2026-05-04 02:13 | 32.73506 | -116.50293 | 10339 ft | 302 kts | 261° |
| 2026-05-04 02:14 | 32.73280 | -116.52760 | 9975 ft | 299 kts | 260° |
| 2026-05-04 02:14 | 32.73043 | -116.55174 | 9891 ft | 287 kts | 260° |
| 2026-05-04 02:14 | 32.72819 | -116.57469 | 9872 ft | 272 kts | 260° |
| 2026-05-04 02:14 | 32.72606 | -116.59663 | 9809 ft | 263 kts | 260° |
| 2026-05-04 02:15 | 32.72399 | -116.61781 | 9709 ft | 254 kts | 260° |
| 2026-05-04 02:15 | 32.72198 | -116.63848 | 9504 ft | 250 kts | 259° |
| 2026-05-04 02:15 | 32.71998 | -116.65903 | 9217 ft | 251 kts | 261° |
| 2026-05-04 02:15 | 32.71829 | -116.67968 | 8904 ft | 252 kts | 261° |
| 2026-05-04 02:16 | 32.71669 | -116.70031 | 8621 ft | 251 kts | 261° |
| 2026-05-04 02:16 | 32.71510 | -116.72084 | 8369 ft | 249 kts | 261° |
| 2026-05-04 02:16 | 32.71350 | -116.74139 | 8095 ft | 250 kts | 261° |
| 2026-05-04 02:16 | 32.71189 | -116.76192 | 7822 ft | 250 kts | 262° |
| 2026-05-04 02:17 | 32.71027 | -116.78248 | 7514 ft | 250 kts | 262° |
| 2026-05-04 02:17 | 32.70864 | -116.80310 | 7283 ft | 249 kts | 262° |
| 2026-05-04 02:17 | 32.70628 | -116.82315 | 7149 ft | 242 kts | 252° |
| 2026-05-04 02:17 | 32.70094 | -116.84177 | 7059 ft | 234 kts | 247° |
| 2026-05-04 02:18 | 32.69518 | -116.85950 | 6975 ft | 227 kts | 247° |
| 2026-05-04 02:18 | 32.68970 | -116.87668 | 6903 ft | 219 kts | 252° |
| 2026-05-04 02:18 | 32.68907 | -116.89437 | 6864 ft | 210 kts | 270° |
| 2026-05-04 02:18 | 32.69005 | -116.91117 | 6772 ft | 198 kts | 270° |
| 2026-05-04 02:19 | 32.69093 | -116.92703 | 6648 ft | 189 kts | 270° |
| 2026-05-04 02:19 | 32.69176 | -116.94247 | 6438 ft | 187 kts | 270° |
| 2026-05-04 02:19 | 32.69262 | -116.95781 | 6215 ft | 183 kts | 271° |
| 2026-05-04 02:19 | 32.69344 | -116.97241 | 6143 ft | 171 kts | 271° |
| 2026-05-04 02:20 | 32.69419 | -116.98587 | 6024 ft | 156 kts | 271° |
| 2026-05-04 02:20 | 32.69490 | -116.99866 | 5643 ft | 155 kts | 271° |
| 2026-05-04 02:20 | 32.69560 | -117.01140 | 5274 ft | 154 kts | 271° |
| 2026-05-04 02:20 | 32.69629 | -117.02414 | 4889 ft | 154 kts | 273° |
| 2026-05-04 02:21 | 32.69696 | -117.03621 | 4814 ft | 152 kts | 273° |
| 2026-05-04 02:21 | 32.69946 | -117.04937 | 5355 ft | 179 kts | 284° |
| 2026-05-04 02:21 | 32.70316 | -117.06440 | 5931 ft | 195 kts | 283° |
| 2026-05-04 02:21 | 32.70694 | -117.07996 | 5969 ft | 196 kts | 283° |
| 2026-05-04 02:22 | 32.71072 | -117.09556 | 5998 ft | 198 kts | 283° |
| 2026-05-04 02:22 | 32.71453 | -117.11128 | 6002 ft | 198 kts | 283° |
| 2026-05-04 02:22 | 32.72006 | -117.12617 | 5976 ft | 203 kts | 310° |
| 2026-05-04 02:22 | 32.73252 | -117.13326 | 5988 ft | 204 kts | 354° |
| 2026-05-04 02:23 | 32.74642 | -117.13028 | 6012 ft | 203 kts | 11° |
| 2026-05-04 02:23 | 32.76013 | -117.12616 | 5999 ft | 204 kts | 11° |
| 2026-05-04 02:23 | 32.77391 | -117.12203 | 6004 ft | 203 kts | 11° |
| 2026-05-04 02:23 | 32.78720 | -117.11626 | 5973 ft | 206 kts | 37° |
| 2026-05-04 02:24 | 32.79470 | -117.10220 | 6005 ft | 204 kts | 73° |
| 2026-05-04 02:24 | 32.80194 | -117.08768 | 5979 ft | 209 kts | 35° |
| 2026-05-04 02:24 | 32.81511 | -117.08157 | 6013 ft | 205 kts | 10° |
| 2026-05-04 02:24 | 32.82891 | -117.07749 | 5990 ft | 203 kts | 11° |
| 2026-05-04 02:25 | 32.84252 | -117.07340 | 5986 ft | 201 kts | 11° |
| 2026-05-04 02:25 | 32.85604 | -117.06933 | 5978 ft | 200 kts | 11° |
| 2026-05-04 02:25 | 32.86957 | -117.06510 | 5971 ft | 202 kts | 17° |
| 2026-05-04 02:25 | 32.88026 | -117.05459 | 5962 ft | 206 kts | 64° |
| 2026-05-04 02:26 | 32.88215 | -117.03798 | 6011 ft | 207 kts | 101° |
| 2026-05-04 02:26 | 32.88000 | -117.02107 | 5989 ft | 206 kts | 101° |
| 2026-05-04 02:26 | 32.87793 | -117.00426 | 5984 ft | 205 kts | 101° |
| 2026-05-04 02:26 | 32.87591 | -116.98749 | 5995 ft | 206 kts | 101° |
| 2026-05-04 02:27 | 32.87390 | -116.97064 | 5989 ft | 206 kts | 101° |
| 2026-05-04 02:27 | 32.87188 | -116.95376 | 5986 ft | 205 kts | 101° |
| 2026-05-04 02:27 | 32.86984 | -116.93699 | 5995 ft | 205 kts | 101° |
| 2026-05-04 02:27 | 32.86784 | -116.92019 | 5995 ft | 206 kts | 101° |
| 2026-05-04 02:28 | 32.86588 | -116.90333 | 5988 ft | 205 kts | 101° |
| 2026-05-04 02:28 | 32.86394 | -116.88658 | 5998 ft | 204 kts | 101° |
| 2026-05-04 02:28 | 32.86080 | -116.87024 | 5968 ft | 201 kts | 123° |
| 2026-05-04 02:28 | 32.85269 | -116.85707 | 5996 ft | 197 kts | 131° |
| 2026-05-04 02:29 | 32.84436 | -116.84398 | 5999 ft | 200 kts | 131° |
| 2026-05-04 02:29 | 32.83605 | -116.83076 | 5967 ft | 199 kts | 131° |
| 2026-05-04 02:29 | 32.82800 | -116.81777 | 5974 ft | 192 kts | 130° |
| 2026-05-04 02:29 | 32.81995 | -116.80470 | 6008 ft | 200 kts | 130° |
| 2026-05-04 02:30 | 32.81172 | -116.79141 | 5985 ft | 198 kts | 131° |
| 2026-05-04 02:30 | 32.80132 | -116.78189 | 5972 ft | 186 kts | 171° |
| 2026-05-04 02:30 | 32.78930 | -116.78416 | 6007 ft | 176 kts | 210° |
| 2026-05-04 02:30 | 32.77846 | -116.79125 | 5996 ft | 179 kts | 211° |
| 2026-05-04 02:31 | 32.76814 | -116.79932 | 5975 ft | 174 kts | 221° |
| 2026-05-04 02:31 | 32.75928 | -116.80837 | 5958 ft | 162 kts | 222° |
| 2026-05-04 02:31 | 32.75050 | -116.81728 | 5995 ft | 167 kts | 222° |
| 2026-05-04 02:31 | 32.74178 | -116.82609 | 5984 ft | 162 kts | 221° |
| 2026-05-04 02:32 | 32.73324 | -116.83468 | 5981 ft | 163 kts | 221° |
| 2026-05-04 02:32 | 32.72406 | -116.84391 | 6001 ft | 179 kts | 221° |
| 2026-05-04 02:32 | 32.71447 | -116.85351 | 5990 ft | 182 kts | 221° |
| 2026-05-04 02:32 | 32.70477 | -116.86321 | 5994 ft | 182 kts | 222° |
| 2026-05-04 02:33 | 32.69513 | -116.87284 | 5807 ft | 180 kts | 221° |
| 2026-05-04 02:33 | 32.68714 | -116.88408 | 5465 ft | 182 kts | 248° |
| 2026-05-04 02:33 | 32.68303 | -116.89831 | 5140 ft | 185 kts | 251° |
| 2026-05-04 02:33 | 32.67871 | -116.91270 | 4769 ft | 183 kts | 251° |
| 2026-05-04 02:34 | 32.67469 | -116.92690 | 4358 ft | 180 kts | 259° |
| 2026-05-04 02:34 | 32.67587 | -116.94108 | 4114 ft | 172 kts | 281° |
| 2026-05-04 02:34 | 32.67809 | -116.95495 | 3970 ft | 170 kts | 280° |
| 2026-05-04 02:34 | 32.68075 | -116.96865 | 3825 ft | 171 kts | 283° |
| 2026-05-04 02:35 | 32.68380 | -116.98226 | 3662 ft | 175 kts | 284° |
| 2026-05-04 02:35 | 32.68706 | -116.99611 | 3499 ft | 174 kts | 285° |
| 2026-05-04 02:35 | 32.69035 | -117.00991 | 3313 ft | 174 kts | 285° |
| 2026-05-04 02:35 | 32.69369 | -117.02383 | 2977 ft | 178 kts | 285° |
| 2026-05-04 02:36 | 32.69697 | -117.03754 | 2727 ft | 167 kts | 284° |
| 2026-05-04 02:36 | 32.70001 | -117.05018 | 2533 ft | 152 kts | 284° |
| 2026-05-04 02:36 | 32.70278 | -117.06176 | 2312 ft | 140 kts | 285° |
| 2026-05-04 02:36 | 32.70539 | -117.07262 | 2146 ft | 134 kts | 285° |
| 2026-05-04 02:37 | 32.70786 | -117.08286 | 2016 ft | 123 kts | 285° |
| 2026-05-04 02:37 | 32.71026 | -117.09268 | 1714 ft | 139 kts | 287° |
| 2026-05-04 02:37 | 32.71328 | -117.10380 | 1453 ft | 141 kts | 287° |
| 2026-05-04 02:37 | 32.71614 | -117.11494 | 1153 ft | 140 kts | 283° |
| 2026-05-04 02:38 | 32.71840 | -117.12609 | 924 ft | 138 kts | 282° |
| 2026-05-04 02:38 | 32.72078 | -117.13684 | 761 ft | 134 kts | 284° |
| 2026-05-04 02:38 | 32.72345 | -117.14732 | 586 ft | 134 kts | 287° |
| 2026-05-04 02:38 | 32.72602 | -117.15830 | 420 ft | 137 kts | 285° |
| 2026-05-04 02:39 | 32.72863 | -117.16944 | 251 ft | 141 kts | 286° |
| 2026-05-04 02:39 | 32.73131 | -117.18049 | 61 ft | 135 kts | 285° |
| 2026-05-04 02:39 | 32.73360 | -117.19007 | 26 ft | 99 kts | 287° |
| 2026-05-04 02:39 | 32.73487 | -117.19521 | 28 ft | 35 kts | 287° |
| 2026-05-04 02:40 | 32.73532 | -117.19786 | 28 ft | 17 kts | 246° |
| 2026-05-04 02:40 | 32.73515 | -117.19811 | 28 ft | 0 kts | 228° |
| 2026-05-04 02:40 | 32.73514 | -117.19811 | 28 ft | 1 kts | 228° |
| 2026-05-04 02:40 | 32.73514 | -117.19812 | 28 ft | 0 kts | 228° |
| 2026-05-04 02:41 | 32.73511 | -117.19815 | 28 ft | 2 kts | 228° |
| 2026-05-04 02:41 | 32.73510 | -117.19816 | 28 ft | 0 kts | 227° |
| 2026-05-04 02:41 | 32.73506 | -117.19821 | 28 ft | 4 kts | 227° |
| 2026-05-04 02:41 | 32.73463 | -117.19853 | 27 ft | 11 kts | 219° |
| 2026-05-04 02:42 | 32.73442 | -117.19941 | 26 ft | 9 kts | 263° |
| 2026-05-04 02:42 | 32.73422 | -117.19971 | 28 ft | 4 kts | 222° |
| 2026-05-04 02:42 | 32.73406 | -117.20006 | 26 ft | 6 kts | 263° |
| 2026-05-04 02:42 | 32.73393 | -117.20051 | 26 ft | 0 kts | 255° |